Time;durP1;ratioP1;P1;durP2;ratioP2;P2;SDS_P1;SDS_P2;PMS_P1;PMS_P2;Temp;Humidity;BMP_temperature;BMP_pressure;BME280_temperature;BME280_humidity;BME280_pressure;Samples;Min_cycle;Max_cycle;Signal;HPM_P1;HPM_P2
2022/09/17 00:00:54;;;;;;;1.77;1.02;;;9.20;99.90;;;;;;8326398;28;20052;-83
2022/09/17 00:04:54;;;;;;;3.00;1.13;;;9.20;99.90;;;;;;8342588;28;20033;-82
2022/09/17 00:08:55;;;;;;;1.98;1.13;;;9.10;99.90;;;;;;8320909;28;20041;-82
2022/09/17 00:12:55;;;;;;;1.23;0.98;;;9.00;99.90;;;;;;8338535;28;20032;-83
2022/09/17 00:16:56;;;;;;;1.25;1.10;;;9.00;99.90;;;;;;8337960;28;20088;-82
2022/09/17 00:20:56;;;;;;;1.77;1.10;;;8.70;99.90;;;;;;8331702;28;20025;-83
2022/09/17 00:24:57;;;;;;;2.80;0.90;;;8.70;99.90;;;;;;8337735;28;20037;-82
2022/09/17 00:28:59;;;;;;;1.17;0.90;;;8.90;99.90;;;;;;8327378;28;20282;-83
2022/09/17 00:32:59;;;;;;;3.53;0.98;;;9.00;99.90;;;;;;8325783;28;20022;-83
2022/09/17 00:37:00;;;;;;;3.30;0.85;;;9.00;99.90;;;;;;8329068;28;20017;-83
2022/09/17 00:41:02;;;;;;;1.10;0.68;;;9.10;99.90;;;;;;8327735;28;20017;-83
2022/09/17 00:45:04;;;;;;;1.42;0.70;;;9.00;99.90;;;;;;8332827;28;20032;-83
2022/09/17 00:49:22;;;;;;;1.30;1.00;;;9.00;99.90;;;;;;8327215;28;20643;-82
2022/09/17 00:53:22;;;;;;;2.28;1.13;;;9.00;99.90;;;;;;8325519;28;20104;-82
2022/09/17 00:57:23;;;;;;;2.25;1.00;;;8.90;99.90;;;;;;8327995;28;20028;-83
2022/09/17 01:01:24;;;;;;;2.22;0.98;;;8.80;99.90;;;;;;8324623;28;20026;-82
2022/09/17 01:05:49;;;;;;;1.75;1.13;;;8.80;99.90;;;;;;8337243;28;20037;-82
2022/09/17 01:10:17;;;;;;;1.58;1.13;;;8.70;99.90;;;;;;8337674;28;20022;-83
2022/09/17 01:14:21;;;;;;;1.83;1.00;;;8.70;99.90;;;;;;8320891;28;20029;-83
2022/09/17 01:18:47;;;;;;;1.83;0.98;;;8.80;99.90;;;;;;8326912;28;20515;-83
2022/09/17 01:23:17;;;;;;;1.55;1.02;;;8.70;99.90;;;;;;8331469;28;20041;-82
2022/09/17 01:27:40;;;;;;;1.95;0.90;;;8.80;99.90;;;;;;8335938;28;20033;-83
2022/09/17 01:31:50;;;;;;;1.05;0.88;;;8.70;99.90;;;;;;8318259;28;20076;-83
2022/09/17 01:36:25;;;;;;;1.00;0.80;;;8.70;99.90;;;;;;8322858;28;20032;-83
2022/09/17 01:40:44;;;;;;;2.78;0.82;;;8.70;99.90;;;;;;8315916;28;20084;-83
2022/09/17 01:45:00;;;;;;;3.75;1.13;;;8.80;99.90;;;;;;8328548;28;20428;-82
2022/09/17 01:49:04;;;;;;;1.55;1.10;;;8.70;99.90;;;;;;8326096;28;20079;-83
2022/09/17 01:53:07;;;;;;;1.42;1.02;;;8.50;99.90;;;;;;8325975;28;20022;-81
2022/09/17 01:57:26;;;;;;;1.17;1.02;;;8.70;99.90;;;;;;8335800;28;20532;-82
2022/09/17 02:01:30;;;;;;;2.25;1.08;;;8.80;99.90;;;;;;8325224;28;20112;-83
2022/09/17 02:05:55;;;;;;;1.60;0.90;;;8.90;99.90;;;;;;8325150;28;20117;-82
2022/09/17 02:10:09;;;;;;;0.75;0.73;;;8.90;99.90;;;;;;8327791;28;20477;-81
2022/09/17 02:14:16;;;;;;;0.95;0.80;;;8.80;99.90;;;;;;8318271;28;20033;-82
2022/09/17 02:18:39;;;;;;;1.70;0.85;;;8.80;99.90;;;;;;8312228;28;20088;-83
2022/09/17 02:22:46;;;;;;;1.90;1.00;;;8.70;99.90;;;;;;8317035;28;20549;-83
2022/09/17 02:26:59;;;;;;;1.05;0.80;;;8.80;99.90;;;;;;8321189;28;20025;-82
2022/09/17 02:31:00;;;;;;;1.60;1.02;;;8.90;99.90;;;;;;8334703;28;20025;-83
2022/09/17 02:35:00;;;;;;;1.25;0.85;;;8.70;99.90;;;;;;8334422;28;20017;-83
2022/09/17 02:39:03;;;;;;;2.97;0.90;;;8.50;99.90;;;;;;8324616;28;20561;-82
2022/09/17 02:43:18;;;;;;;1.58;1.10;;;8.30;99.90;;;;;;8316602;28;20021;-82
2022/09/17 02:47:26;;;;;;;1.00;0.90;;;8.20;99.90;;;;;;8334425;28;20037;-83
2022/09/17 02:51:54;;;;;;;5.78;1.33;;;8.10;99.90;;;;;;8324894;28;20018;-82
2022/09/17 02:56:21;;;;;;;1.98;1.17;;;8.00;99.90;;;;;;8317250;28;21549;-82
2022/09/17 03:00:23;;;;;;;1.50;0.90;;;8.20;99.90;;;;;;8320056;28;20045;-83
2022/09/17 03:04:25;;;;;;;2.33;1.00;;;8.50;99.90;;;;;;8324566;28;20029;-81
2022/09/17 03:08:33;;;;;;;1.52;1.10;;;8.60;99.90;;;;;;8323650;28;20026;-81
2022/09/17 03:12:35;;;;;;;1.98;0.93;;;8.30;99.90;;;;;;8365116;22;20557;-82
2022/09/17 03:16:35;;;;;;;1.42;1.13;;;8.30;99.90;;;;;;8297831;28;20340;-82
2022/09/17 03:20:36;;;;;;;2.42;1.30;;;8.20;99.90;;;;;;8278860;28;20448;-82
2022/09/17 03:24:36;;;;;;;1.10;1.00;;;8.20;99.90;;;;;;8286128;28;20018;-82
2022/09/17 03:28:37;;;;;;;2.38;1.17;;;8.30;99.90;;;;;;8276123;28;20121;-82
2022/09/17 03:32:37;;;;;;;1.83;1.30;;;8.20;99.90;;;;;;8282357;28;20076;-82
2022/09/17 03:36:38;;;;;;;1.20;0.90;;;8.30;99.90;;;;;;8282772;28;20037;-82
2022/09/17 03:40:39;;;;;;;3.17;1.52;;;8.40;99.90;;;;;;8282315;28;20056;-82
2022/09/17 03:44:39;;;;;;;2.42;1.30;;;8.40;99.90;;;;;;8282223;28;20036;-82
2022/09/17 03:48:40;;;;;;;1.50;1.30;;;8.40;99.90;;;;;;8282646;28;20018;-81
2022/09/17 03:52:42;;;;;;;2.97;1.13;;;8.60;99.90;;;;;;8282633;28;20025;-81
2022/09/17 03:56:43;;;;;;;1.63;1.38;;;8.60;99.90;;;;;;8282143;28;20037;-81
2022/09/17 04:00:43;;;;;;;1.83;1.40;;;8.60;99.90;;;;;;8282229;28;20022;-82
2022/09/17 04:04:44;;;;;;;2.88;1.60;;;8.60;99.90;;;;;;8283421;28;20029;-81
2022/09/17 04:08:44;;;;;;;4.03;1.77;;;8.50;99.90;;;;;;8280668;28;20088;-82
2022/09/17 04:12:45;;;;;;;2.20;2.00;;;8.60;99.90;;;;;;8281305;28;20026;-82
2022/09/17 04:16:46;;;;;;;3.00;2.00;;;8.60;99.90;;;;;;8295462;28;20071;-82
2022/09/17 04:20:46;;;;;;;2.53;1.90;;;8.70;99.90;;;;;;8273252;28;20018;-82
2022/09/17 04:24:47;;;;;;;2.85;1.80;;;8.70;99.90;;;;;;8290573;28;20037;-81
2022/09/17 04:28:47;;;;;;;2.95;2.00;;;8.50;99.90;;;;;;8287274;28;20022;-81
2022/09/17 04:32:48;;;;;;;2.40;1.75;;;8.50;99.90;;;;;;8285659;28;20024;-80
2022/09/17 04:36:48;;;;;;;3.17;2.00;;;8.50;99.90;;;;;;8287628;28;20026;-81
2022/09/17 04:40:50;;;;;;;2.20;1.92;;;8.50;99.90;;;;;;8293519;28;20371;-81
2022/09/17 04:44:51;;;;;;;3.72;1.70;;;8.30;99.90;;;;;;8299028;28;20045;-81
2022/09/17 04:48:51;;;;;;;3.05;1.83;;;8.20;99.90;;;;;;8282154;28;20022;-80
2022/09/17 04:52:52;;;;;;;2.85;1.70;;;8.20;99.90;;;;;;8288704;28;20064;-80
2022/09/17 04:56:53;;;;;;;2.53;1.65;;;8.20;99.90;;;;;;8283603;28;20026;-81
2022/09/17 05:00:55;;;;;;;2.83;2.05;;;8.10;99.90;;;;;;8285537;28;20033;-89
2022/09/17 05:04:55;;;;;;;1.77;1.40;;;8.10;99.90;;;;;;8291868;28;21338;-90
2022/09/17 05:08:56;;;;;;;2.80;1.60;;;8.20;99.90;;;;;;8286757;28;20030;-90
2022/09/17 05:12:56;;;;;;;2.45;1.80;;;7.90;99.90;;;;;;8281343;28;20026;-89
2022/09/17 05:16:57;;;;;;;2.83;2.10;;;7.70;99.90;;;;;;8288629;28;20064;-90
2022/09/17 05:20:58;;;;;;;2.55;1.90;;;7.80;99.90;;;;;;8285453;28;20083;-89
2022/09/17 05:24:58;;;;;;;3.00;1.95;;;7.80;99.90;;;;;;8284485;28;20371;-89
2022/09/17 05:28:59;;;;;;;2.60;2.17;;;7.70;99.90;;;;;;8284950;28;20028;-81
2022/09/17 05:33:05;;;;;;;3.22;2.10;;;8.00;99.90;;;;;;8283329;28;20025;-81
2022/09/17 05:37:09;;;;;;;2.60;1.88;;;8.20;99.90;;;;;;8287784;28;20045;-81
2022/09/17 05:41:10;;;;;;;2.28;1.90;;;8.30;99.90;;;;;;8296510;28;20080;-81
2022/09/17 05:45:10;;;;;;;1.70;1.38;;;8.20;99.90;;;;;;8279838;28;20028;-81
2022/09/17 05:49:11;;;;;;;2.35;1.30;;;8.20;99.90;;;;;;8297431;28;20075;-81
2022/09/17 05:53:12;;;;;;;0.50;0.50;;;8.20;99.90;;;;;;8279688;28;20053;-81
2022/09/17 05:57:14;;;;;;;2.50;1.05;;;8.30;99.90;;;;;;8279458;28;20022;-80
2022/09/17 06:01:15;;;;;;;1.90;0.80;;;8.40;99.90;;;;;;8280724;28;20026;-81
2022/09/17 06:05:15;;;;;;;1.00;0.85;;;8.40;99.90;;;;;;8286522;28;20084;-82
2022/09/17 06:09:16;;;;;;;1.30;0.90;;;8.40;99.90;;;;;;8296589;28;20071;-81
2022/09/17 06:13:17;;;;;;;3.22;0.80;;;8.60;99.90;;;;;;8295845;28;20030;-82
2022/09/17 06:17:17;;;;;;;0.50;0.50;;;8.80;99.90;;;;;;8282379;28;20030;-81
2022/09/17 06:21:18;;;;;;;4.45;1.17;;;8.60;99.90;;;;;;8278592;28;20490;-82
2022/09/17 06:25:19;;;;;;;2.15;0.98;;;8.70;99.90;;;;;;8287972;28;20068;-82
2022/09/17 06:29:20;;;;;;;3.72;1.00;;;8.80;99.90;;;;;;8279802;28;20029;-81
2022/09/17 06:33:21;;;;;;;1.95;1.00;;;8.80;99.90;;;;;;8278345;28;20017;-82
2022/09/17 06:37:30;;;;;;;2.03;1.10;;;9.30;99.90;;;;;;8295899;28;20025;-82
2022/09/17 06:41:31;;;;;;;3.10;0.98;;;9.40;99.90;;;;;;8295814;28;20075;-82
2022/09/17 06:45:32;;;;;;;1.50;1.10;;;9.30;99.90;;;;;;8281708;28;20028;-82
2022/09/17 06:49:32;;;;;;;1.50;0.90;;;9.20;99.90;;;;;;8290544;28;20111;-82
2022/09/17 06:53:36;;;;;;;2.78;0.82;;;9.00;99.90;;;;;;8281441;28;20037;-82
2022/09/17 06:57:37;;;;;;;1.45;0.88;;;8.90;99.90;;;;;;8277734;28;20434;-82
2022/09/17 07:01:37;;;;;;;3.08;0.95;;;9.00;99.90;;;;;;8274412;28;20026;-81
2022/09/17 07:05:38;;;;;;;2.30;0.70;;;9.80;99.90;;;;;;8284973;28;20041;-82
2022/09/17 07:09:38;;;;;;;0.50;0.50;;;10.40;99.90;;;;;;8277675;28;20018;-82
2022/09/17 07:13:40;;;;;;;0.52;0.50;;;10.60;99.90;;;;;;8284319;28;20042;-82
2022/09/17 07:17:43;;;;;;;2.83;0.90;;;10.60;99.90;;;;;;8289502;28;20619;-83
2022/09/17 07:21:43;;;;;;;1.65;0.80;;;10.70;99.90;;;;;;8282337;28;20418;-80
2022/09/17 07:25:44;;;;;;;1.67;0.82;;;10.60;99.90;;;;;;8284535;28;20036;-81
2022/09/17 07:29:44;;;;;;;2.08;0.75;;;10.50;99.90;;;;;;8279016;28;20504;-82
2022/09/17 07:33:45;;;;;;;3.00;1.10;;;10.20;99.90;;;;;;8259625;28;20141;-83
2022/09/17 07:37:46;;;;;;;1.27;0.77;;;10.40;99.90;;;;;;8269275;28;20152;-82
2022/09/17 07:41:46;;;;;;;1.77;1.00;;;10.90;99.90;;;;;;8283989;28;20018;-82
2022/09/17 07:45:47;;;;;;;4.68;0.98;;;10.80;99.90;;;;;;8281731;28;20036;-82
2022/09/17 07:49:47;;;;;;;4.13;0.88;;;10.60;99.90;;;;;;8289200;28;20505;-81
2022/09/17 07:53:52;;;;;;;3.33;0.75;;;10.20;99.90;;;;;;8281670;28;20471;-82
2022/09/17 07:57:53;;;;;;;4.80;0.93;;;10.20;99.90;;;;;;8294037;28;20049;-83
2022/09/17 08:01:53;;;;;;;3.30;0.70;;;10.50;99.90;;;;;;8307783;28;20021;-84
2022/09/17 08:06:04;;;;;;;3.00;0.80;;;11.00;99.90;;;;;;8312884;28;20030;-84
2022/09/17 08:10:05;;;;;;;1.35;0.50;;;11.60;99.90;;;;;;8305477;28;20026;-81
2022/09/17 08:14:08;;;;;;;1.08;0.52;;;11.60;99.90;;;;;;8294213;28;20037;-84
2022/09/17 08:18:09;;;;;;;4.03;0.82;;;11.30;99.90;;;;;;8294770;28;20030;-83
2022/09/17 08:22:09;;;;;;;2.25;0.70;;;10.90;99.90;;;;;;8295109;28;20022;-82
2022/09/17 08:26:16;;;;;;;2.47;1.00;;;10.80;99.90;;;;;;8287315;28;20117;-82
2022/09/17 08:30:16;;;;;;;1.70;0.63;;;11.00;99.90;;;;;;8303257;28;20026;-82
2022/09/17 08:34:17;;;;;;;2.25;0.35;;;11.30;99.90;;;;;;8283858;28;20072;-82
2022/09/17 08:38:17;;;;;;;1.40;0.80;;;11.70;99.90;;;;;;8294233;28;20037;-81
2022/09/17 08:42:23;;;;;;;4.00;0.80;;;12.00;99.90;;;;;;8287629;28;20026;-82
2022/09/17 08:46:25;;;;;;;2.65;0.63;;;12.30;99.90;;;;;;8282225;28;20551;-82
2022/09/17 08:50:28;;;;;;;2.78;0.70;;;12.00;99.90;;;;;;8284560;28;20026;-82
2022/09/17 08:54:55;;;;;;;2.47;0.63;;;11.80;99.90;;;;;;8300748;28;20029;-82
2022/09/17 08:59:43;;;;;;;2.20;0.77;;;12.10;99.90;;;;;;8308093;28;20022;-86
2022/09/17 09:03:50;;;;;;;0.98;0.32;;;12.00;99.90;;;;;;8295977;28;20498;-81
2022/09/17 09:07:59;;;;;;;1.02;0.50;;;12.30;99.90;;;;;;8307402;28;20045;-82
2022/09/17 09:12:06;;;;;;;1.85;0.77;;;12.00;99.90;;;;;;8299321;28;20120;-82
2022/09/17 09:16:13;;;;;;;3.70;0.70;;;12.50;99.90;;;;;;8296786;23;20044;-92
2022/09/17 09:20:31;;;;;;;2.03;0.70;;;12.70;99.90;;;;;;8277954;28;20529;-92
2022/09/17 09:24:59;;;;;;;4.97;0.60;;;12.60;99.90;;;;;;8325724;22;20041;-84
2022/09/17 09:29:04;;;;;;;1.92;0.57;;;12.80;99.90;;;;;;8315216;28;20025;-83
2022/09/17 09:33:13;;;;;;;2.50;0.77;;;12.60;99.90;;;;;;8325980;28;20029;-84
2022/09/17 09:37:26;;;;;;;2.42;0.60;;;12.40;99.90;;;;;;8333289;28;20140;-83
2022/09/17 09:41:39;;;;;;;0.95;0.60;;;11.90;99.90;;;;;;8331813;28;20032;-84
2022/09/17 09:45:56;;;;;;;2.17;0.73;;;11.60;99.90;;;;;;8329986;28;20033;-84
2022/09/17 09:49:59;;;;;;;0.77;0.55;;;11.20;99.90;;;;;;8338343;28;20029;-82
2022/09/17 09:54:17;;;;;;;0.43;0.30;;;11.20;99.90;;;;;;8327958;28;20033;-83
2022/09/17 09:58:29;;;;;;;3.92;0.70;;;11.20;99.90;;;;;;8327194;28;20026;-83
2022/09/17 10:02:31;;;;;;;0.75;0.40;;;11.00;99.90;;;;;;8337267;28;20044;-84
2022/09/17 10:06:32;;;;;;;1.08;0.30;;;11.10;99.90;;;;;;8320807;28;20030;-84
2022/09/17 10:10:32;;;;;;;0.30;0.30;;;11.30;99.90;;;;;;8324120;28;20078;-83
2022/09/17 10:14:41;;;;;;;1.20;0.60;;;11.40;99.90;;;;;;8320492;28;20025;-84
2022/09/17 10:18:41;;;;;;;1.73;0.40;;;11.80;99.90;;;;;;8328351;28;20116;-84
2022/09/17 10:22:46;;;;;;;1.45;0.40;;;12.20;99.90;;;;;;8313109;28;20071;-84
2022/09/17 10:26:47;;;;;;;2.05;0.68;;;12.70;99.90;;;;;;8327536;28;20039;-84
2022/09/17 10:30:59;;;;;;;2.15;0.50;;;12.80;99.90;;;;;;8321602;28;20017;-83
2022/09/17 10:35:03;;;;;;;0.90;0.38;;;13.20;99.90;;;;;;8336923;28;20100;-85
2022/09/17 10:39:36;;;;;;;2.47;0.60;;;13.70;99.90;;;;;;8327591;28;20040;-83
2022/09/17 10:43:37;;;;;;;0.70;0.30;;;13.30;99.90;;;;;;8324808;28;20482;-84
2022/09/17 10:47:42;;;;;;;3.30;0.60;;;12.90;99.90;;;;;;8326778;28;20033;-83
2022/09/17 10:51:43;;;;;;;2.28;0.50;;;12.30;99.90;;;;;;8327891;28;20025;-83
2022/09/17 10:56:21;;;;;;;1.35;0.60;;;11.90;99.90;;;;;;8326755;28;20060;-82
2022/09/17 11:00:23;;;;;;;4.90;0.60;;;13.20;99.90;;;;;;8324776;28;20029;-82
2022/09/17 11:04:45;;;;;;;3.42;0.60;;;13.30;99.90;;;;;;8332582;28;20489;-84
2022/09/17 11:09:08;;;;;;;3.47;0.75;;;12.00;99.90;;;;;;8319668;28;20021;-83
2022/09/17 11:13:45;;;;;;;2.10;0.52;;;11.20;99.90;;;;;;8319378;28;20036;-85
2022/09/17 11:18:04;;;;;;;1.13;0.40;;;11.20;99.90;;;;;;8325713;28;20052;-83
2022/09/17 11:22:29;;;;;;;1.75;0.68;;;11.60;99.90;;;;;;8326018;28;20029;-82
2022/09/17 11:26:40;;;;;;;3.05;0.60;;;13.60;99.90;;;;;;8316368;28;20025;-84
2022/09/17 11:30:51;;;;;;;1.70;0.50;;;15.30;99.90;;;;;;8324464;28;20017;-83
2022/09/17 11:35:05;;;;;;;;;;;16.50;99.90;;;;;;8330392;28;20028;-84
2022/09/17 11:39:30;;;;;;;1.10;0.40;;;17.20;99.90;;;;;;8331308;28;19960;-83
2022/09/17 11:43:39;;;;;;;1.05;0.60;;;15.80;99.90;;;;;;8343153;28;20022;-87
2022/09/17 11:47:51;;;;;;;1.45;0.55;;;15.10;99.90;;;;;;8325730;28;20029;-82
2022/09/17 11:51:57;;;;;;;1.88;0.68;;;14.80;99.90;;;;;;8323570;28;20040;-83
2022/09/17 11:56:18;;;;;;;2.28;0.90;;;15.50;99.90;;;;;;8322664;28;20100;-82
2022/09/17 12:00:22;;;;;;;2.20;0.63;;;18.10;99.90;;;;;;8321600;28;20033;-83
2022/09/17 12:04:49;;;;;;;1.55;0.50;;;19.50;99.90;;;;;;8331384;28;20033;-83
2022/09/17 12:08:49;;;;;;;2.65;0.52;;;17.70;99.90;;;;;;8318512;28;20031;-82
2022/09/17 12:13:05;;;;;;;2.05;0.77;;;14.90;99.90;;;;;;8322299;28;20540;-83
2022/09/17 12:17:15;;;;;;;1.83;0.55;;;14.00;99.90;;;;;;8327545;28;20104;-82
2022/09/17 12:21:46;;;;;;;1.80;0.50;;;14.20;99.90;;;;;;8331757;28;20424;-84
2022/09/17 12:25:58;;;;;;;1.77;0.53;;;14.00;99.90;;;;;;8331499;28;20037;-84
2022/09/17 12:30:02;;;;;;;2.53;0.60;;;14.30;99.90;;;;;;8321764;28;20265;-83
2022/09/17 12:34:29;;;;;;;0.68;0.47;;;14.80;99.90;;;;;;8323660;28;20401;-83
2022/09/17 12:38:48;;;;;;;2.10;0.50;;;15.80;99.90;;;;;;8285624;28;20060;-82
2022/09/17 12:42:54;;;;;;;2.45;0.55;;;17.30;99.90;;;;;;8311478;28;20030;-84
2022/09/17 12:47:13;;;;;;;1.50;0.60;;;18.30;99.90;;;;;;8320517;28;20116;-84
2022/09/17 12:51:43;;;;;;;0.60;0.35;;;17.50;99.90;;;;;;8320211;28;20048;-85
2022/09/17 12:55:53;;;;;;;0.88;0.50;;;18.20;99.90;;;;;;8319896;28;20026;-84
2022/09/17 13:00:05;;;;;;;2.40;0.47;;;18.30;99.90;;;;;;8317966;28;20052;-84
2022/09/17 13:04:39;;;;;;;3.00;0.70;;;18.40;99.90;;;;;;8331011;28;20033;-82
2022/09/17 13:09:24;;;;;;;3.20;0.60;;;19.00;99.90;;;;;;8315524;28;20014;-85
2022/09/17 13:13:39;;;;;;;2.33;0.63;;;18.10;99.90;;;;;;8320845;28;20065;-83
2022/09/17 13:17:49;;;;;;;3.40;0.50;;;16.20;99.90;;;;;;8314090;28;20025;-83
2022/09/17 13:21:59;;;;;;;2.10;0.67;;;16.60;99.90;;;;;;8316176;28;20449;-84
2022/09/17 13:26:04;;;;;;;5.32;0.52;;;15.70;99.90;;;;;;8317069;28;20036;-84
2022/09/17 13:30:11;;;;;;;2.05;0.40;;;15.40;99.90;;;;;;8322440;28;20138;-84
2022/09/17 13:34:34;;;;;;;0.65;0.32;;;16.60;99.90;;;;;;8317835;28;20032;-84
2022/09/17 13:38:40;;;;;;;3.42;0.50;;;16.30;99.90;;;;;;8332275;28;20053;-85
2022/09/17 13:42:48;;;;;;;1.40;0.50;;;17.00;99.90;;;;;;8328746;28;20486;-82
2022/09/17 13:46:51;;;;;;;2.38;0.50;;;19.30;99.40;;;;;;8322084;28;20057;-84
2022/09/17 13:50:52;;;;;;;2.00;0.50;;;16.80;99.90;;;;;;8321742;28;20028;-84
2022/09/17 13:54:53;;;;;;;0.75;0.45;;;15.40;99.90;;;;;;8331612;28;20105;-84
2022/09/17 13:58:53;;;;;;;1.58;0.65;;;14.50;99.90;;;;;;8317112;28;20025;-83
2022/09/17 14:02:54;;;;;;;0.95;0.50;;;14.00;99.90;;;;;;8323610;28;20083;-84
2022/09/17 14:06:58;;;;;;;1.65;0.60;;;13.90;99.90;;;;;;8321130;28;20121;-83
2022/09/17 14:11:01;;;;;;;0.75;0.47;;;14.20;99.90;;;;;;8332091;28;20079;-82
2022/09/17 14:15:02;;;;;;;1.00;0.50;;;15.30;99.90;;;;;;8318828;28;20030;-84
2022/09/17 14:19:14;;;;;;;0.88;0.50;;;17.20;99.90;;;;;;8316344;28;20620;-84
2022/09/17 14:23:15;;;;;;;1.08;0.52;;;18.70;99.90;;;;;;8332361;28;20061;-84
2022/09/17 14:27:33;;;;;;;3.78;0.50;;;18.00;99.90;;;;;;8317186;28;20041;-83
2022/09/17 14:31:35;;;;;;;5.07;0.55;;;16.50;99.90;;;;;;8338280;28;20394;-82
2022/09/17 14:35:46;;;;;;;1.25;0.75;;;15.50;99.90;;;;;;8313934;28;20051;-83
2022/09/17 14:39:48;;;;;;;3.22;0.80;;;14.50;99.90;;;;;;8311686;28;20032;-83
2022/09/17 14:44:01;;;;;;;2.20;0.70;;;13.90;99.90;;;;;;8327520;28;20037;-83
2022/09/17 14:48:28;;;;;;;1.45;0.50;;;13.60;99.90;;;;;;8320983;28;20056;-84
2022/09/17 14:52:31;;;;;;;0.98;0.50;;;13.00;99.90;;;;;;8316018;28;20025;-84
2022/09/17 14:56:48;;;;;;;2.25;0.70;;;12.60;99.90;;;;;;8315058;28;20116;-84
2022/09/17 15:00:51;;;;;;;0.38;0.38;;;12.20;99.90;;;;;;8333153;28;20033;-83
2022/09/17 15:04:52;;;;;;;0.60;0.28;;;11.20;99.90;;;;;;8329690;28;20396;-84
2022/09/17 15:08:56;;;;;;;0.43;0.43;;;9.60;99.90;;;;;;8320610;28;20032;-85
2022/09/17 15:12:57;;;;;;;1.50;0.70;;;8.90;99.90;;;;;;8325638;28;20061;-83
2022/09/17 15:17:00;;;;;;;0.80;0.65;;;8.90;99.90;;;;;;8324676;28;20037;-85
2022/09/17 15:21:04;;;;;;;1.42;0.60;;;8.90;99.90;;;;;;8332637;28;20500;-85
2022/09/17 15:25:30;;;;;;;1.58;0.50;;;8.90;99.90;;;;;;8315428;28;20056;-85
2022/09/17 15:29:33;;;;;;;1.48;0.68;;;9.10;99.90;;;;;;8322822;28;20038;-84
2022/09/17 15:33:34;;;;;;;1.75;0.80;;;9.30;99.90;;;;;;8324099;28;20052;-84
2022/09/17 15:37:42;;;;;;;2.85;0.80;;;9.50;99.90;;;;;;8320347;28;20500;-84
2022/09/17 15:41:43;;;;;;;0.60;0.52;;;9.60;99.90;;;;;;8333607;28;20108;-84
2022/09/17 15:45:43;;;;;;;3.50;0.88;;;9.70;99.90;;;;;;8321296;28;20049;-84
2022/09/17 15:50:06;;;;;;;1.77;1.00;;;9.90;99.90;;;;;;8318509;28;20032;-83
2022/09/17 15:54:28;;;;;;;1.75;0.98;;;10.00;99.90;;;;;;8315690;28;20029;-84
2022/09/17 15:58:40;;;;;;;1.52;0.85;;;10.20;99.90;;;;;;8333773;28;20030;-84
2022/09/17 16:02:41;;;;;;;0.52;0.45;;;10.40;99.90;;;;;;8308654;28;20040;-83
2022/09/17 16:06:48;;;;;;;1.70;0.77;;;10.20;99.90;;;;;;8315195;28;20021;-83
2022/09/17 16:10:49;;;;;;;1.05;0.70;;;10.00;99.90;;;;;;8328433;28;20061;-83
2022/09/17 16:14:52;;;;;;;0.82;0.60;;;9.90;99.90;;;;;;8326181;28;20017;-82
2022/09/17 16:18:52;;;;;;;0.90;0.60;;;10.00;99.90;;;;;;8333623;28;20044;-83
2022/09/17 16:22:53;;;;;;;1.13;0.70;;;10.10;99.90;;;;;;8324710;28;20029;-82
2022/09/17 16:26:54;;;;;;;0.98;0.57;;;10.20;99.90;;;;;;8326879;28;20040;-82
2022/09/17 16:30:55;;;;;;;1.20;0.70;;;10.10;99.90;;;;;;8328160;28;20017;-82
2022/09/17 16:34:55;;;;;;;2.03;0.80;;;9.90;99.90;;;;;;8316113;28;20548;-82
2022/09/17 16:38:56;;;;;;;1.20;0.60;;;9.70;99.90;;;;;;8315422;28;20021;-82
2022/09/17 16:43:01;;;;;;;1.52;0.90;;;9.70;99.90;;;;;;8316165;28;20025;-83
2022/09/17 16:47:02;;;;;;;1.52;0.80;;;9.70;99.90;;;;;;8331117;28;20060;-82
2022/09/17 16:51:10;;;;;;;1.30;0.80;;;9.50;99.90;;;;;;8317354;28;20524;-83
2022/09/17 16:55:13;;;;;;;1.25;0.90;;;9.50;99.90;;;;;;8322065;28;20033;-82
2022/09/17 16:59:13;;;;;;;4.30;0.80;;;9.20;99.90;;;;;;8330604;28;20024;-82
2022/09/17 17:03:14;;;;;;;5.70;1.23;;;9.10;99.90;;;;;;8327679;28;20385;-81
2022/09/17 17:07:15;;;;;;;1.98;0.90;;;9.10;99.90;;;;;;8323517;28;20037;-83
2022/09/17 17:11:15;;;;;;;1.58;0.90;;;9.10;99.90;;;;;;8329301;28;20021;-83
2022/09/17 17:15:16;;;;;;;1.30;0.80;;;9.30;99.90;;;;;;8323487;28;20033;-82
2022/09/17 17:19:16;;;;;;;1.10;0.75;;;9.20;99.90;;;;;;8330647;28;20097;-82
2022/09/17 17:23:17;;;;;;;1.40;0.93;;;9.10;99.90;;;;;;8332898;28;20549;-82
2022/09/17 17:27:17;;;;;;;4.45;1.23;;;8.90;99.90;;;;;;8324661;28;20069;-83
2022/09/17 17:31:18;;;;;;;2.20;1.08;;;8.80;99.90;;;;;;8336221;28;20029;-82
2022/09/17 17:35:19;;;;;;;2.28;1.20;;;8.60;99.90;;;;;;8317609;28;20037;-82
2022/09/17 17:39:20;;;;;;;1.48;1.00;;;8.40;99.90;;;;;;8316935;28;20028;-82
2022/09/17 17:43:20;;;;;;;3.50;1.25;;;8.30;99.90;;;;;;8315889;28;20029;-83
2022/09/17 17:47:21;;;;;;;1.65;1.25;;;8.30;99.90;;;;;;8325754;28;20025;-82
2022/09/17 17:51:22;;;;;;;3.40;1.40;;;8.20;99.90;;;;;;8320921;28;20633;-83
2022/09/17 17:55:24;;;;;;;1.30;1.00;;;8.00;99.90;;;;;;8330896;28;20393;-81
2022/09/17 17:59:24;;;;;;;1.60;1.20;;;8.10;99.90;;;;;;8323900;28;20029;-82
2022/09/17 18:03:25;;;;;;;2.20;1.40;;;8.20;99.90;;;;;;8315693;28;20036;-83
2022/09/17 18:07:27;;;;;;;1.95;1.15;;;8.50;99.90;;;;;;8317867;28;20079;-82
2022/09/17 18:11:28;;;;;;;3.03;1.27;;;8.30;99.90;;;;;;8318400;28;20025;-83
2022/09/17 18:15:29;;;;;;;2.55;1.60;;;8.50;99.90;;;;;;8317208;28;20536;-82
2022/09/17 18:19:29;;;;;;;2.67;1.75;;;8.30;99.90;;;;;;8317092;28;20033;-83
2022/09/17 18:23:30;;;;;;;1.85;1.50;;;8.10;99.90;;;;;;8322582;28;20084;-83
2022/09/17 18:27:30;;;;;;;5.38;1.50;;;8.10;99.90;;;;;;8314598;28;20124;-82
2022/09/17 18:31:33;;;;;;;1.85;1.50;;;7.90;99.90;;;;;;8314744;28;20105;-83
2022/09/17 18:35:35;;;;;;;4.93;1.60;;;8.00;99.90;;;;;;8318550;28;20039;-83
2022/09/17 18:39:36;;;;;;;2.58;1.33;;;8.10;99.90;;;;;;8320326;28;20029;-83
2022/09/17 18:43:36;;;;;;;1.90;1.40;;;8.20;99.90;;;;;;8317589;28;20038;-83
2022/09/17 18:47:37;;;;;;;1.88;1.10;;;8.30;99.90;;;;;;8318834;28;20478;-82
2022/09/17 18:51:37;;;;;;;1.73;1.10;;;8.70;99.90;;;;;;8322553;28;20041;-81
2022/09/17 18:55:38;;;;;;;3.42;1.20;;;8.90;99.90;;;;;;8307846;28;20025;-82
2022/09/17 18:59:39;;;;;;;2.10;0.60;;;9.10;99.90;;;;;;8317970;28;20104;-82
2022/09/17 19:03:39;;;;;;;2.47;1.00;;;9.20;99.90;;;;;;8313459;28;20429;-83
2022/09/17 19:07:45;;;;;;;3.30;1.10;;;9.30;99.90;;;;;;8309699;28;20075;-80
2022/09/17 19:11:46;;;;;;;2.20;1.00;;;9.40;99.90;;;;;;8327224;28;20025;-82
2022/09/17 19:15:47;;;;;;;1.25;0.82;;;9.30;99.90;;;;;;8309652;28;20494;-82
2022/09/17 19:19:47;;;;;;;1.40;0.90;;;9.20;99.90;;;;;;8327090;28;20029;-80
2022/09/17 19:23:50;;;;;;;2.30;0.80;;;9.00;99.90;;;;;;8311521;28;20481;-82
2022/09/17 19:27:54;;;;;;;1.27;0.70;;;9.00;99.90;;;;;;8318481;28;20032;-81
2022/09/17 19:31:55;;;;;;;0.50;0.50;;;8.90;99.90;;;;;;8319771;28;20068;-81
2022/09/17 19:35:59;;;;;;;2.15;0.77;;;8.90;99.90;;;;;;8310003;28;20022;-82
2022/09/17 19:40:00;;;;;;;1.20;0.63;;;8.90;99.90;;;;;;8310159;28;20041;-81
2022/09/17 19:44:01;;;;;;;1.90;0.70;;;8.80;99.90;;;;;;8317206;28;20022;-82
2022/09/17 19:48:03;;;;;;;0.98;0.80;;;8.90;99.90;;;;;;8310266;28;20030;-79
2022/09/17 19:52:03;;;;;;;0.82;0.82;;;8.90;99.90;;;;;;8318285;28;20025;-80
2022/09/17 19:56:05;;;;;;;1.02;0.63;;;8.90;99.90;;;;;;8332147;28;20120;-82
2022/09/17 20:00:08;;;;;;;1.30;0.90;;;8.90;99.90;;;;;;8314304;28;20052;-81
2022/09/17 20:04:09;;;;;;;4.28;1.10;;;9.00;99.90;;;;;;8319268;28;20567;-81
2022/09/17 20:08:09;;;;;;;1.40;0.80;;;8.90;99.90;;;;;;8331671;28;20025;-81
2022/09/17 20:12:10;;;;;;;1.30;0.90;;;8.90;99.90;;;;;;8335399;28;20017;-81
2022/09/17 20:16:16;;;;;;;3.03;0.90;;;8.90;99.90;;;;;;8338556;28;20048;-82
2022/09/17 20:20:17;;;;;;;2.88;1.20;;;9.00;99.90;;;;;;8320149;28;20032;-81
2022/09/17 20:24:18;;;;;;;1.02;0.80;;;9.10;99.90;;;;;;8323541;28;20601;-81
2022/09/17 20:28:19;;;;;;;1.98;0.85;;;9.10;99.90;;;;;;8319509;28;20444;-82
2022/09/17 20:32:19;;;;;;;2.20;0.77;;;9.20;99.90;;;;;;8329226;28;20022;-81
2022/09/17 20:36:22;;;;;;;1.35;0.82;;;9.10;99.90;;;;;;8320008;28;20033;-82
2022/09/17 20:40:23;;;;;;;2.78;1.00;;;9.20;99.90;;;;;;8322928;28;20486;-82
2022/09/17 20:44:23;;;;;;;1.42;0.90;;;9.00;99.90;;;;;;8317993;28;20032;-82
2022/09/17 20:48:24;;;;;;;2.20;1.17;;;9.00;99.90;;;;;;8330575;28;20513;-82
2022/09/17 20:52:24;;;;;;;1.00;0.70;;;8.90;99.90;;;;;;8332374;28;20025;-82
2022/09/17 20:56:27;;;;;;;3.38;1.00;;;9.00;99.90;;;;;;8318955;28;20031;-82
2022/09/17 21:00:28;;;;;;;2.13;1.20;;;8.80;99.90;;;;;;8313244;28;20071;-82
2022/09/17 21:04:28;;;;;;;2.80;1.00;;;9.00;99.90;;;;;;8315532;28;20067;-82
2022/09/17 21:08:29;;;;;;;1.02;0.73;;;9.20;99.90;;;;;;8330152;28;20029;-81
2022/09/17 21:12:29;;;;;;;1.25;0.70;;;9.20;99.90;;;;;;8325498;28;20033;-81
2022/09/17 21:16:30;;;;;;;4.55;1.10;;;9.10;99.90;;;;;;8321160;28;20478;-83
2022/09/17 21:20:34;;;;;;;3.72;1.17;;;8.90;99.90;;;;;;8319733;28;20022;-83
2022/09/17 21:24:35;;;;;;;1.83;0.77;;;8.80;99.90;;;;;;8318890;28;20037;-83
2022/09/17 21:28:36;;;;;;;0.98;0.60;;;8.70;99.90;;;;;;8333354;28;20025;-82